sensor_id;sensor_type;location;lat;lon;timestamp;pressure;altitude;pressure_sealevel;temperature;humidity
28630;BME280;15817;42.130;24.762;2024-01-27T00:01:02;100434.19;;;6.10;69.92
28630;BME280;15817;42.130;24.762;2024-01-27T00:07:27;100440.38;;;6.10;69.54
28630;BME280;15817;42.130;24.762;2024-01-27T00:10:22;100462.53;;;6.18;69.86
28630;BME280;15817;42.130;24.762;2024-01-27T00:13:11;100451.84;;;6.11;69.83
28630;BME280;15817;42.130;24.762;2024-01-27T00:15:45;100459.75;;;6.11;69.43
28630;BME280;15817;42.130;24.762;2024-01-27T00:18:23;100463.22;;;6.08;69.23
28630;BME280;15817;42.130;24.762;2024-01-27T00:20:49;100470.31;;;6.11;68.87
28630;BME280;15817;42.130;24.762;2024-01-27T00:23:29;100468.53;;;6.10;68.62
28630;BME280;15817;42.130;24.762;2024-01-27T00:26:32;100486.34;;;6.20;68.43
28630;BME280;15817;42.130;24.762;2024-01-27T00:29:15;100476.50;;;6.13;68.35
28630;BME280;15817;42.130;24.762;2024-01-27T00:31:43;100465.88;;;6.10;68.74
28630;BME280;15817;42.130;24.762;2024-01-27T00:34:30;100465.88;;;6.10;68.76
28630;BME280;15817;42.130;24.762;2024-01-27T00:37:01;100460.66;;;6.13;68.68
28630;BME280;15817;42.130;24.762;2024-01-27T00:39:27;100453.56;;;6.10;68.55
28630;BME280;15817;42.130;24.762;2024-01-27T00:42:00;100442.97;;;6.09;67.90
28630;BME280;15817;42.130;24.762;2024-01-27T00:44:29;100443.84;;;6.08;67.45
28630;BME280;15817;42.130;24.762;2024-01-27T00:46:55;100446.53;;;6.11;67.74
28630;BME280;15817;42.130;24.762;2024-01-27T00:49:35;100441.22;;;6.09;67.79
28630;BME280;15817;42.130;24.762;2024-01-27T00:52:13;100446.59;;;6.14;67.23
28630;BME280;15817;42.130;24.762;2024-01-27T00:54:39;100447.41;;;6.10;67.07
28630;BME280;15817;42.130;24.762;2024-01-27T00:57:05;100444.81;;;6.11;67.73
28630;BME280;15817;42.130;24.762;2024-01-27T00:59:39;100435.91;;;6.08;67.25
28630;BME280;15817;42.130;24.762;2024-01-27T01:02:16;100423.53;;;6.05;67.27
28630;BME280;15817;42.130;24.762;2024-01-27T01:04:42;100437.59;;;6.04;67.02
28630;BME280;15817;42.130;24.762;2024-01-27T01:07:08;100433.97;;;5.99;67.27
28630;BME280;15817;42.130;24.762;2024-01-27T01:09:38;100405.63;;;5.92;67.27
28630;BME280;15817;42.130;24.762;2024-01-27T01:12:08;100407.34;;;5.90;67.63
28630;BME280;15817;42.130;24.762;2024-01-27T01:14:46;100405.50;;;5.86;67.86
28630;BME280;15817;42.130;24.762;2024-01-27T01:17:30;100389.66;;;5.86;67.67
28630;BME280;15817;42.130;24.762;2024-01-27T01:20:05;100395.00;;;5.89;67.64
28630;BME280;15817;42.130;24.762;2024-01-27T01:22:34;100386.19;;;5.89;67.76
28630;BME280;15817;42.130;24.762;2024-01-27T01:25:09;100387.84;;;5.83;67.40
28630;BME280;15817;42.130;24.762;2024-01-27T01:27:44;100380.97;;;5.90;67.60
28630;BME280;15817;42.130;24.762;2024-01-27T01:30:11;100399.53;;;5.95;67.26
28630;BME280;15817;42.130;24.762;2024-01-27T01:32:40;100379.16;;;5.89;67.58
28630;BME280;15817;42.130;24.762;2024-01-27T01:35:24;100372.88;;;5.84;67.39
28630;BME280;15817;42.130;24.762;2024-01-27T01:37:50;100384.50;;;5.91;66.80
28630;BME280;15817;42.130;24.762;2024-01-27T01:40:24;100364.84;;;5.79;67.11
28630;BME280;15817;42.130;24.762;2024-01-27T01:43:01;100374.56;;;5.80;67.04
28630;BME280;15817;42.130;24.762;2024-01-27T01:45:41;100374.56;;;5.80;66.76
28630;BME280;15817;42.130;24.762;2024-01-27T01:48:07;100374.50;;;5.76;67.05
28630;BME280;15817;42.130;24.762;2024-01-27T01:50:44;100385.97;;;5.79;67.29
28630;BME280;15817;42.130;24.762;2024-01-27T01:53:26;100370.78;;;5.68;66.89
28630;BME280;15817;42.130;24.762;2024-01-27T01:56:08;100384.03;;;5.71;67.22
28630;BME280;15817;42.130;24.762;2024-01-27T01:58:42;100367.31;;;5.70;66.96
28630;BME280;15817;42.130;24.762;2024-01-27T02:01:13;100362.16;;;5.75;66.90
28630;BME280;15817;42.130;24.762;2024-01-27T02:04:00;100340.97;;;5.72;66.73
28630;BME280;15817;42.130;24.762;2024-01-27T02:06:33;100351.63;;;5.78;66.79
28630;BME280;15817;42.130;24.762;2024-01-27T02:09:36;100339.25;;;5.74;66.75
28630;BME280;15817;42.130;24.762;2024-01-27T02:12:05;100361.38;;;5.80;67.10
28630;BME280;15817;42.130;24.762;2024-01-27T02:14:31;100354.16;;;5.72;66.61
28630;BME280;15817;42.130;24.762;2024-01-27T02:17:05;100365.53;;;5.69;66.54
28630;BME280;15817;42.130;24.762;2024-01-27T02:19:34;100366.34;;;5.67;66.74
28630;BME280;15817;42.130;24.762;2024-01-27T02:22:03;100371.69;;;5.70;66.97
28630;BME280;15817;42.130;24.762;2024-01-27T02:24:32;100376.97;;;5.70;67.06
28630;BME280;15817;42.130;24.762;2024-01-27T02:27:00;100367.16;;;5.63;66.84
28630;BME280;15817;42.130;24.762;2024-01-27T02:29:26;100376.91;;;5.65;66.99
28630;BME280;15817;42.130;24.762;2024-01-27T02:31:54;100359.09;;;5.57;67.30
28630;BME280;15817;42.130;24.762;2024-01-27T02:34:25;100366.84;;;5.49;67.58
28630;BME280;15817;42.130;24.762;2024-01-27T02:36:53;100372.03;;;5.46;67.26
28630;BME280;15817;42.130;24.762;2024-01-27T02:39:28;100368.50;;;5.45;67.01
28630;BME280;15817;42.130;24.762;2024-01-27T02:41:54;100373.06;;;5.51;67.04
28630;BME280;15817;42.130;24.762;2024-01-27T02:44:22;100366.91;;;5.52;67.24
28630;BME280;15817;42.130;24.762;2024-01-27T02:46:51;100379.38;;;5.59;67.52
28630;BME280;15817;42.130;24.762;2024-01-27T02:49:20;100368.72;;;5.55;67.09
28630;BME280;15817;42.130;24.762;2024-01-27T02:51:54;100360.78;;;5.53;66.90
28630;BME280;15817;42.130;24.762;2024-01-27T02:54:32;100356.38;;;5.52;67.05
28630;BME280;15817;42.130;24.762;2024-01-27T02:57:11;100346.63;;;5.50;66.92
28630;BME280;15817;42.130;24.762;2024-01-27T02:59:51;100340.38;;;5.46;67.26
28630;BME280;15817;42.130;24.762;2024-01-27T03:02:20;100348.34;;;5.47;67.08
28630;BME280;15817;42.130;24.762;2024-01-27T03:04:46;100351.78;;;5.45;66.96
28630;BME280;15817;42.130;24.762;2024-01-27T03:07:31;100349.03;;;5.39;67.00
28630;BME280;15817;42.130;24.762;2024-01-27T03:10:00;100355.38;;;5.47;67.77
28630;BME280;15817;42.130;24.762;2024-01-27T03:12:31;100343.75;;;5.39;67.51
28630;BME280;15817;42.130;24.762;2024-01-27T03:15:18;100340.13;;;5.34;68.05
28630;BME280;15817;42.130;24.762;2024-01-27T03:17:54;100333.00;;;5.30;68.39
28630;BME280;15817;42.130;24.762;2024-01-27T03:20:22;100347.16;;;5.35;68.20
28630;BME280;15817;42.130;24.762;2024-01-27T03:22:48;100350.53;;;5.28;67.73
28630;BME280;15817;42.130;24.762;2024-01-27T03:25:24;100337.06;;;5.16;67.47
28630;BME280;15817;42.130;24.762;2024-01-27T03:27:55;100345.97;;;5.19;67.38
28630;BME280;15817;42.130;24.762;2024-01-27T03:30:31;100336.13;;;5.14;67.56
28630;BME280;15817;42.130;24.762;2024-01-27T03:36:18;100332.50;;;5.08;66.84
28630;BME280;15817;42.130;24.762;2024-01-27T03:38:52;100335.25;;;5.13;66.83
28630;BME280;15817;42.130;24.762;2024-01-27T03:41:21;100341.53;;;5.20;66.88
28630;BME280;15817;42.130;24.762;2024-01-27T03:44:00;100323.09;;;5.20;66.04
28630;BME280;15817;42.130;24.762;2024-01-27T03:46:26;100306.41;;;5.19;65.60
28630;BME280;15817;42.130;24.762;2024-01-27T03:48:52;100303.88;;;5.25;66.27
28630;BME280;15817;42.130;24.762;2024-01-27T03:51:32;100326.81;;;5.28;65.29
28630;BME280;15817;42.130;24.762;2024-01-27T03:53:58;100308.38;;;5.31;65.14
28630;BME280;15817;42.130;24.762;2024-01-27T03:56:23;100295.97;;;5.25;64.50
28630;BME280;15817;42.130;24.762;2024-01-27T03:58:58;100293.50;;;5.33;64.09
28630;BME280;15817;42.130;24.762;2024-01-27T04:01:29;100306.91;;;5.42;63.66
28630;BME280;15817;42.130;24.762;2024-01-27T04:04:24;100303.34;;;5.40;63.27
28630;BME280;15817;42.130;24.762;2024-01-27T04:06:55;100292.84;;;5.41;63.14
28630;BME280;15817;42.130;24.762;2024-01-27T04:09:41;100298.25;;;5.49;62.43
28630;BME280;15817;42.130;24.762;2024-01-27T04:12:10;100283.25;;;5.46;61.78
28630;BME280;15817;42.130;24.762;2024-01-27T04:15:16;100284.28;;;5.53;61.27
28630;BME280;15817;42.130;24.762;2024-01-27T04:17:59;100282.72;;;5.63;60.97
28630;BME280;15817;42.130;24.762;2024-01-27T04:20:37;100279.19;;;5.62;60.19
28630;BME280;15817;42.130;24.762;2024-01-27T04:23:10;100282.78;;;5.67;60.37
28630;BME280;15817;42.130;24.762;2024-01-27T04:28:38;100280.22;;;5.70;60.07
28630;BME280;15817;42.130;24.762;2024-01-27T04:31:19;100288.25;;;5.75;60.81
28630;BME280;15817;42.130;24.762;2024-01-27T04:33:57;100295.31;;;5.76;61.79
28630;BME280;15817;42.130;24.762;2024-01-27T04:36:39;100284.56;;;5.68;60.89
28630;BME280;15817;42.130;24.762;2024-01-27T04:39:27;100278.44;;;5.69;60.92
28630;BME280;15817;42.130;24.762;2024-01-27T04:42:13;100271.47;;;5.71;61.02
28630;BME280;15817;42.130;24.762;2024-01-27T04:44:46;100275.94;;;5.77;61.57
28630;BME280;15817;42.130;24.762;2024-01-27T04:47:30;100263.63;;;5.76;61.64
28630;BME280;15817;42.130;24.762;2024-01-27T04:50:00;100263.63;;;5.77;61.51
28630;BME280;15817;42.130;24.762;2024-01-27T04:52:39;100278.84;;;5.89;61.33
28630;BME280;15817;42.130;24.762;2024-01-27T04:55:12;100263.75;;;5.82;61.35
28630;BME280;15817;42.130;24.762;2024-01-27T04:58:03;100262.03;;;5.84;61.08
28630;BME280;15817;42.130;24.762;2024-01-27T05:00:50;100257.69;;;5.86;62.00
28630;BME280;15817;42.130;24.762;2024-01-27T05:03:57;100269.22;;;5.91;63.30
28630;BME280;15817;42.130;24.762;2024-01-27T05:06:43;100257.56;;;5.81;63.85
28630;BME280;15817;42.130;24.762;2024-01-27T05:09:48;100273.53;;;5.88;62.85
28630;BME280;15817;42.130;24.762;2024-01-27T05:12:42;100255.81;;;5.82;62.61
28630;BME280;15817;42.130;24.762;2024-01-27T05:15:32;100254.06;;;5.82;63.21
28630;BME280;15817;42.130;24.762;2024-01-27T05:18:08;100260.31;;;5.86;62.69
28630;BME280;15817;42.130;24.762;2024-01-27T05:20:37;100255.78;;;5.80;62.56
28630;BME280;15817;42.130;24.762;2024-01-27T05:23:03;100271.84;;;5.88;59.23
28630;BME280;15817;42.130;24.762;2024-01-27T05:25:32;100257.69;;;5.86;59.21
28630;BME280;15817;42.130;24.762;2024-01-27T05:28:04;100260.34;;;5.88;58.12
28630;BME280;15817;42.130;24.762;2024-01-27T05:34:03;100270.91;;;5.88;57.77
28630;BME280;15817;42.130;24.762;2024-01-27T05:36:34;100280.69;;;5.92;56.75
28630;BME280;15817;42.130;24.762;2024-01-27T05:39:23;100280.69;;;5.92;57.42
28630;BME280;15817;42.130;24.762;2024-01-27T05:42:04;100277.97;;;5.89;57.70
28630;BME280;15817;42.130;24.762;2024-01-27T05:44:35;100287.66;;;5.88;57.44
28630;BME280;15817;42.130;24.762;2024-01-27T05:47:07;100287.72;;;5.91;57.59
28630;BME280;15817;42.130;24.762;2024-01-27T05:49:38;100279.69;;;5.87;57.29
28630;BME280;15817;42.130;24.762;2024-01-27T05:52:07;100279.78;;;5.91;57.23
28630;BME280;15817;42.130;24.762;2024-01-27T05:54:40;100281.53;;;5.91;57.46
28630;BME280;15817;42.130;24.762;2024-01-27T05:57:13;100291.31;;;5.95;57.27
28630;BME280;15817;42.130;24.762;2024-01-27T05:59:47;100286.97;;;5.98;57.79
28630;BME280;15817;42.130;24.762;2024-01-27T06:02:20;100290.53;;;6.02;57.76
28630;BME280;15817;42.130;24.762;2024-01-27T06:04:48;100299.53;;;6.10;57.75
28630;BME280;15817;42.130;24.762;2024-01-27T06:07:16;100286.16;;;6.02;58.00
28630;BME280;15817;42.130;24.762;2024-01-27T06:09:42;100290.63;;;6.05;58.11
28630;BME280;15817;42.130;24.762;2024-01-27T06:12:11;100267.66;;;6.01;59.26
28630;BME280;15817;42.130;24.762;2024-01-27T06:14:37;100283.50;;;6.01;60.03
28630;BME280;15817;42.130;24.762;2024-01-27T06:17:07;100279.09;;;6.00;59.94
28630;BME280;15817;42.130;24.762;2024-01-27T06:19:33;100283.44;;;5.98;60.96
28630;BME280;15817;42.130;24.762;2024-01-27T06:22:02;100289.66;;;6.00;60.53
28630;BME280;15817;42.130;24.762;2024-01-27T06:24:43;100278.19;;;5.98;61.30
28630;BME280;15817;42.130;24.762;2024-01-27T06:27:18;100291.44;;;6.02;60.67
28630;BME280;15817;42.130;24.762;2024-01-27T06:30:41;100293.16;;;6.00;60.23
28630;BME280;15817;42.130;24.762;2024-01-27T06:33:34;100287.03;;;6.00;60.88
28630;BME280;15817;42.130;24.762;2024-01-27T06:36:10;100288.75;;;5.99;61.17
28630;BME280;15817;42.130;24.762;2024-01-27T06:38:57;100286.13;;;6.01;63.31
28630;BME280;15817;42.130;24.762;2024-01-27T06:41:26;100294.97;;;6.03;64.25
28630;BME280;15817;42.130;24.762;2024-01-27T06:44:03;100282.50;;;5.94;66.84
28630;BME280;15817;42.130;24.762;2024-01-27T06:46:41;100285.03;;;5.88;69.00
28630;BME280;15817;42.130;24.762;2024-01-27T06:49:17;100292.06;;;5.89;69.57
28630;BME280;15817;42.130;24.762;2024-01-27T06:51:49;100285.78;;;5.84;71.40
28630;BME280;15817;42.130;24.762;2024-01-27T06:54:31;100282.25;;;5.83;73.60
28630;BME280;15817;42.130;24.762;2024-01-27T06:57:26;100294.78;;;5.92;73.59
28630;BME280;15817;42.130;24.762;2024-01-27T07:00:01;100267.28;;;5.82;73.98
28630;BME280;15817;42.130;24.762;2024-01-27T07:02:33;100275.16;;;5.81;74.47
28630;BME280;15817;42.130;24.762;2024-01-27T07:05:15;100266.34;;;5.80;74.45
28630;BME280;15817;42.130;24.762;2024-01-27T07:08:28;100263.84;;;5.87;76.16
28630;BME280;15817;42.130;24.762;2024-01-27T07:11:03;100264.59;;;5.81;75.12
28630;BME280;15817;42.130;24.762;2024-01-27T07:16:53;100272.66;;;5.87;76.25
28630;BME280;15817;42.130;24.762;2024-01-27T07:19:26;100270.09;;;5.90;74.96
28630;BME280;15817;42.130;24.762;2024-01-27T07:22:03;100257.84;;;5.94;74.48
28630;BME280;15817;42.130;24.762;2024-01-27T07:24:43;100249.16;;;6.01;74.89
28630;BME280;15817;42.130;24.762;2024-01-27T07:28:13;100260.72;;;6.06;76.15
28630;BME280;15817;42.130;24.762;2024-01-27T07:31:20;100264.34;;;6.11;76.14
28630;BME280;15817;42.130;24.762;2024-01-27T07:34:17;100288.34;;;6.25;77.13
28630;BME280;15817;42.130;24.762;2024-01-27T07:36:55;100297.25;;;6.30;77.71
28630;BME280;15817;42.130;24.762;2024-01-27T07:39:24;100296.38;;;6.31;76.33
28630;BME280;15817;42.130;24.762;2024-01-27T07:42:15;100275.13;;;6.25;74.74
28630;BME280;15817;42.130;24.762;2024-01-27T07:45:32;100276.91;;;6.26;74.55
28630;BME280;15817;42.130;24.762;2024-01-27T07:48:11;100283.19;;;6.31;74.11
28630;BME280;15817;42.130;24.762;2024-01-27T07:50:44;100284.09;;;6.33;74.41
28630;BME280;15817;42.130;24.762;2024-01-27T07:53:28;100281.47;;;6.33;74.71
28630;BME280;15817;42.130;24.762;2024-01-27T07:56:36;100270.97;;;6.37;74.82
28630;BME280;15817;42.130;24.762;2024-01-27T07:59:33;100263.84;;;6.33;75.79
28630;BME280;15817;42.130;24.762;2024-01-27T08:02:20;100251.47;;;6.31;77.04
28630;BME280;15817;42.130;24.762;2024-01-27T08:07:54;100230.38;;;6.32;78.71
28630;BME280;15817;42.130;24.762;2024-01-27T08:13:14;100218.94;;;6.33;78.16
28630;BME280;15817;42.130;24.762;2024-01-27T08:16:03;100205.75;;;6.35;77.48
28630;BME280;15817;42.130;24.762;2024-01-27T08:18:41;100198.81;;;6.41;77.21
28630;BME280;15817;42.130;24.762;2024-01-27T08:21:27;100190.97;;;6.47;77.06
28630;BME280;15817;42.130;24.762;2024-01-27T08:24:00;100181.31;;;6.48;76.63
28630;BME280;15817;42.130;24.762;2024-01-27T08:26:29;100168.06;;;6.46;76.37
28630;BME280;15817;42.130;24.762;2024-01-27T08:28:58;100179.56;;;6.50;75.85
28630;BME280;15817;42.130;24.762;2024-01-27T08:34:58;100192.97;;;6.62;75.55
28630;BME280;15817;42.130;24.762;2024-01-27T08:38:01;100207.16;;;6.67;74.82
28630;BME280;15817;42.130;24.762;2024-01-27T08:40:56;100207.19;;;6.70;74.42
28630;BME280;15817;42.130;24.762;2024-01-27T08:47:02;100222.44;;;6.88;77.22
28630;BME280;15817;42.130;24.762;2024-01-27T08:50:02;100222.50;;;6.94;78.36
28630;BME280;15817;42.130;24.762;2024-01-27T08:56:52;100228.03;;;7.09;80.93
28630;BME280;15817;42.130;24.762;2024-01-27T09:02:41;100230.03;;;7.25;84.05
28630;BME280;15817;42.130;24.762;2024-01-27T09:06:05;100246.88;;;7.34;85.04
28630;BME280;15817;42.130;24.762;2024-01-27T09:09:27;100252.38;;;7.49;87.03
28630;BME280;15817;42.130;24.762;2024-01-27T09:12:40;100257.75;;;7.56;88.06
28630;BME280;15817;42.130;24.762;2024-01-27T09:18:48;100248.13;;;7.63;87.61
28630;BME280;15817;42.130;24.762;2024-01-27T09:21:58;100274.81;;;7.81;87.13
28630;BME280;15817;42.130;24.762;2024-01-27T09:24:46;100252.81;;;7.87;85.57
28630;BME280;15817;42.130;24.762;2024-01-27T09:30:39;100247.81;;;8.14;84.92
28630;BME280;15817;42.130;24.762;2024-01-27T09:33:23;100255.09;;;8.33;82.47
28630;BME280;15817;42.130;24.762;2024-01-27T09:43:31;100242.31;;;8.93;73.59
28630;BME280;15817;42.130;24.762;2024-01-27T09:46:41;100239.78;;;9.11;70.47
28630;BME280;15817;42.130;24.762;2024-01-27T09:55:48;100242.59;;;9.48;67.26
28630;BME280;15817;42.130;24.762;2024-01-27T09:59:00;100218.72;;;9.51;66.84
28630;BME280;15817;42.130;24.762;2024-01-27T10:01:45;100230.22;;;9.45;66.47
28630;BME280;15817;42.130;24.762;2024-01-27T10:04:44;100227.47;;;9.22;66.99
28630;BME280;15817;42.130;24.762;2024-01-27T10:07:43;100249.53;;;9.17;66.94
28630;BME280;15817;42.130;24.762;2024-01-27T10:18:40;100219.44;;;9.15;67.48
28630;BME280;15817;42.130;24.762;2024-01-27T10:21:48;100236.22;;;9.09;67.18
28630;BME280;15817;42.130;24.762;2024-01-27T10:28:12;100263.69;;;9.16;65.48
28630;BME280;15817;42.130;24.762;2024-01-27T11:02:21;100253.16;;;9.32;65.95
28630;BME280;15817;42.130;24.762;2024-01-27T11:04:48;100263.78;;;9.35;66.35
28630;BME280;15817;42.130;24.762;2024-01-27T11:07:22;100265.56;;;9.33;67.30
28630;BME280;15817;42.130;24.762;2024-01-27T11:09:50;100240.72;;;9.25;67.90
28630;BME280;15817;42.130;24.762;2024-01-27T11:12:21;100234.56;;;9.31;67.75
28630;BME280;15817;42.130;24.762;2024-01-27T11:15:00;100243.47;;;9.40;66.83
28630;BME280;15817;42.130;24.762;2024-01-27T11:17:38;100231.06;;;9.38;67.10
28630;BME280;15817;42.130;24.762;2024-01-27T11:20:23;100224.88;;;9.40;67.37
28630;BME280;15817;42.130;24.762;2024-01-27T11:23:06;100204.50;;;9.38;67.89
28630;BME280;15817;42.130;24.762;2024-01-27T11:25:46;100213.41;;;9.48;67.96
28630;BME280;15817;42.130;24.762;2024-01-27T11:28:15;100216.09;;;9.60;68.20
28630;BME280;15817;42.130;24.762;2024-01-27T11:30:48;100219.69;;;9.74;67.96
28630;BME280;15817;42.130;24.762;2024-01-27T11:33:15;100229.44;;;9.69;68.27
28630;BME280;15817;42.130;24.762;2024-01-27T11:35:44;100219.63;;;9.53;68.16
28630;BME280;15817;42.130;24.762;2024-01-27T11:41:23;100254.03;;;9.31;68.31
28630;BME280;15817;42.130;24.762;2024-01-27T11:43:55;100238.09;;;9.30;68.75
28630;BME280;15817;42.130;24.762;2024-01-27T11:46:27;100252.28;;;9.30;68.77
28630;BME280;15817;42.130;24.762;2024-01-27T11:49:03;100282.38;;;9.32;69.14
28630;BME280;15817;42.130;24.762;2024-01-27T11:51:32;100261.94;;;9.24;69.06
28630;BME280;15817;42.130;24.762;2024-01-27T11:54:01;100274.34;;;9.22;69.91
28630;BME280;15817;42.130;24.762;2024-01-27T11:56:27;100274.34;;;9.25;69.87
28630;BME280;15817;42.130;24.762;2024-01-27T11:58:59;100282.28;;;9.23;69.96
28630;BME280;15817;42.130;24.762;2024-01-27T12:01:25;100279.66;;;9.22;70.48
28630;BME280;15817;42.130;24.762;2024-01-27T12:03:57;100272.56;;;9.24;70.65
28630;BME280;15817;42.130;24.762;2024-01-27T12:06:28;100285.84;;;9.21;70.78
28630;BME280;15817;42.130;24.762;2024-01-27T12:09:15;100298.22;;;9.23;71.81
28630;BME280;15817;42.130;24.762;2024-01-27T12:11:46;100327.41;;;9.23;71.85
28630;BME280;15817;42.130;24.762;2024-01-27T12:14:14;100323.84;;;9.18;72.00
28630;BME280;15817;42.130;24.762;2024-01-27T12:16:54;100329.16;;;9.18;72.16
28630;BME280;15817;42.130;24.762;2024-01-27T12:19:34;100319.34;;;9.06;72.72
28630;BME280;15817;42.130;24.762;2024-01-27T12:22:18;100330.84;;;9.05;72.69
28630;BME280;15817;42.130;24.762;2024-01-27T12:25:14;100339.66;;;9.04;72.65
28630;BME280;15817;42.130;24.762;2024-01-27T12:27:45;100345.00;;;9.06;72.57
28630;BME280;15817;42.130;24.762;2024-01-27T12:30:13;100350.22;;;9.00;72.66
28630;BME280;15817;42.130;24.762;2024-01-27T12:32:47;100369.72;;;9.02;73.06
28630;BME280;15817;42.130;24.762;2024-01-27T12:35:17;100355.47;;;8.92;73.50
28630;BME280;15817;42.130;24.762;2024-01-27T12:38:02;100366.94;;;8.90;73.91
28630;BME280;15817;42.130;24.762;2024-01-27T12:40:49;100371.38;;;8.88;74.23
28630;BME280;15817;42.130;24.762;2024-01-27T12:48:04;100377.53;;;8.85;74.74
28630;BME280;15817;42.130;24.762;2024-01-27T12:51:26;100393.47;;;8.90;74.95
28630;BME280;15817;42.130;24.762;2024-01-27T12:54:13;100395.19;;;8.82;74.44
28630;BME280;15817;42.130;24.762;2024-01-27T12:57:15;100400.53;;;8.85;74.97
28630;BME280;15817;42.130;24.762;2024-01-27T13:03:29;100403.06;;;8.77;74.82
28630;BME280;15817;42.130;24.762;2024-01-27T13:05:58;100406.63;;;8.76;75.13
28630;BME280;15817;42.130;24.762;2024-01-27T13:08:35;100399.59;;;8.83;74.91
28630;BME280;15817;42.130;24.762;2024-01-27T13:11:22;100412.03;;;8.87;74.10
28630;BME280;15817;42.130;24.762;2024-01-27T13:13:53;100404.97;;;8.87;73.92
28630;BME280;15817;42.130;24.762;2024-01-27T13:16:40;100412.91;;;8.86;74.07
28630;BME280;15817;42.130;24.762;2024-01-27T13:19:29;100408.50;;;8.86;74.58
28630;BME280;15817;42.130;24.762;2024-01-27T13:25:21;100426.19;;;8.90;74.74
28630;BME280;15817;42.130;24.762;2024-01-27T13:30:53;100439.56;;;8.99;75.05
28630;BME280;15817;42.130;24.762;2024-01-27T13:33:41;100425.31;;;8.88;75.57
28630;BME280;15817;42.130;24.762;2024-01-27T13:36:37;100422.66;;;8.88;75.37
28630;BME280;15817;42.130;24.762;2024-01-27T13:39:21;100431.50;;;8.87;75.01
28630;BME280;15817;42.130;24.762;2024-01-27T13:42:05;100428.84;;;8.89;74.95
28630;BME280;15817;42.130;24.762;2024-01-27T13:45:10;100435.88;;;8.84;74.43
28630;BME280;15817;42.130;24.762;2024-01-27T13:48:20;100447.41;;;8.86;73.87
28630;BME280;15817;42.130;24.762;2024-01-27T13:50:56;100451.81;;;8.85;73.61
28630;BME280;15817;42.130;24.762;2024-01-27T13:53:26;100458.91;;;8.88;73.55
28630;BME280;15817;42.130;24.762;2024-01-27T13:56:18;100453.56;;;8.85;73.74
28630;BME280;15817;42.130;24.762;2024-01-27T13:59:12;100457.03;;;8.79;73.76
28630;BME280;15817;42.130;24.762;2024-01-27T14:02:11;100464.19;;;8.85;73.56
28630;BME280;15817;42.130;24.762;2024-01-27T14:04:50;100453.47;;;8.76;73.77
28630;BME280;15817;42.130;24.762;2024-01-27T14:07:59;100454.38;;;8.76;73.66
28630;BME280;15817;42.130;24.762;2024-01-27T14:10:47;100469.44;;;8.82;73.31
28630;BME280;15817;42.130;24.762;2024-01-27T14:13:44;100470.28;;;8.76;73.65
28630;BME280;15817;42.130;24.762;2024-01-27T14:16:26;100474.66;;;8.73;72.76
28630;BME280;15817;42.130;24.762;2024-01-27T14:19:02;100454.31;;;8.71;72.94
28630;BME280;15817;42.130;24.762;2024-01-27T14:21:41;100452.53;;;8.70;72.00
28630;BME280;15817;42.130;24.762;2024-01-27T14:24:25;100475.50;;;8.70;71.20
28630;BME280;15817;42.130;24.762;2024-01-27T14:27:11;100482.56;;;8.69;71.38
28630;BME280;15817;42.130;24.762;2024-01-27T14:30:23;100475.50;;;8.70;70.74
28630;BME280;15817;42.130;24.762;2024-01-27T14:33:12;100476.38;;;8.69;70.05
28630;BME280;15817;42.130;24.762;2024-01-27T14:37:01;100487.03;;;8.74;70.17
28630;BME280;15817;42.130;24.762;2024-01-27T14:39:51;100492.28;;;8.69;70.04
28630;BME280;15817;42.130;24.762;2024-01-27T14:42:52;100483.38;;;8.65;69.26
28630;BME280;15817;42.130;24.762;2024-01-27T14:45:37;100482.53;;;8.65;68.76
28630;BME280;15817;42.130;24.762;2024-01-27T15:31:13;100537.94;;;8.45;61.79
28630;BME280;15817;42.130;24.762;2024-01-27T16:46:33;100630.69;;;7.89;58.00
28630;BME280;15817;42.130;24.762;2024-01-27T17:28:34;100741.78;;;7.82;58.33
28630;BME280;15817;42.130;24.762;2024-01-27T19:56:55;100866.84;;;6.94;65.11
28630;BME280;15817;42.130;24.762;2024-01-27T20:04:06;100873.78;;;6.88;66.01
28630;BME280;15817;42.130;24.762;2024-01-27T20:07:31;100876.31;;;6.84;65.83
28630;BME280;15817;42.130;24.762;2024-01-27T20:31:47;100870.66;;;6.70;66.32
28630;BME280;15817;42.130;24.762;2024-01-27T20:38:11;100877.84;;;6.74;66.62
28630;BME280;15817;42.130;24.762;2024-01-27T20:44:47;100886.53;;;6.70;66.34
28630;BME280;15817;42.130;24.762;2024-01-27T20:47:40;100883.06;;;6.73;67.08
28630;BME280;15817;42.130;24.762;2024-01-27T20:54:24;100881.31;;;6.73;67.09
28630;BME280;15817;42.130;24.762;2024-01-27T21:08:19;100882.97;;;6.68;66.15
28630;BME280;15817;42.130;24.762;2024-01-27T21:15:29;100877.66;;;6.67;66.15
28630;BME280;15817;42.130;24.762;2024-01-27T21:18:04;100884.69;;;6.66;65.88
28630;BME280;15817;42.130;24.762;2024-01-27T21:20:38;100880.19;;;6.64;65.75
28630;BME280;15817;42.130;24.762;2024-01-27T21:23:13;100880.28;;;6.67;65.54
28630;BME280;15817;42.130;24.762;2024-01-27T21:26:15;100885.50;;;6.64;65.52
28630;BME280;15817;42.130;24.762;2024-01-27T21:29:15;100891.75;;;6.67;65.47
28630;BME280;15817;42.130;24.762;2024-01-27T21:32:10;100899.66;;;6.66;65.37
28630;BME280;15817;42.130;24.762;2024-01-27T21:34:48;100910.22;;;6.66;65.84
28630;BME280;15817;42.130;24.762;2024-01-27T21:37:54;100914.59;;;6.65;65.39
28630;BME280;15817;42.130;24.762;2024-01-27T21:40:30;100918.16;;;6.66;65.75
28630;BME280;15817;42.130;24.762;2024-01-27T21:43:09;100909.22;;;6.62;65.51
28630;BME280;15817;42.130;24.762;2024-01-27T21:45:43;100921.69;;;6.66;65.64
28630;BME280;15817;42.130;24.762;2024-01-27T21:48:15;100925.19;;;6.65;65.51
28630;BME280;15817;42.130;24.762;2024-01-27T21:50:47;100919.91;;;6.65;65.63